Rickenbacker International Airport
KLCK : now visible

Airfield :











YOU CAN JOIN US ON...

 
LOGIN :

Register | Disclaimer

   EN    FR    IT 

 









Legend :    VFR   Marginal VFR   IFR   Intensive IFR   Very Intensive IFR
Visi :
Ceiling :
>= 8 km
>= 3000ft
5 to 8 km
1000 to 3000 ft
1500m to 5 km
500 to 1000 ft
800 to 1500m
200 to 500 ft
< 800m
< 200 ft
Symbols :   Thunderstorms  Fog  Heavy snow  Heavy precipitations  Wind > 20 kt






- Airport Elevation : 744 ft


KLCK - Rickenbacker International

CURRENT METAR :
  • 262355Z AUTO 33009KT 10SM OVC018 09/06 A3022 RMK AO2 T00850056 10105 20085

EXPIRED METARs :
  • 262255Z AUTO 33006KT 10SM OVC020 09/06 A3018 RMK AO2 T00900056
  • 262155Z AUTO 32003KT 10SM OVC020 10/05 A3016 RMK AO2 T00950053

TAF KLCK
Valid from the 27 at 00:00 until the 28 at 00:00 UTC


262337Z 2700/2724 33006KT P6SM VCSH OVC020
FM270200 35006KT P6SM VCSH OVC018
FM270600 35004KT P6SM OVC015
FM271400 02004KT P6SM VCSH OVC015
FM271800 01004KT P6SM OVC021
FM272100 01004KT P6SM OVC035
KZID FIR / North America



MET'MAP, your aeronautical weather chart ! - Copyright ORBIFLY December 2007 - Disclaimer

ORBIFLY MET'MAP TEAM :

Programming & Development : Alexandra Zaïnal
Concept & original design : Baudouin d'Aumeries
Assistance for programming : Marc-Olivier Méhu
Technical & hardware support : Manuel Goepfert

Contact : metmap@orbifly.com




SOURCES & CREDITS :

   NOAA       Earth
Advisory